createdAt,value
2019-05-20T00:00:10.730Z,15.73
2019-05-20T00:02:39.808Z,16.10
2019-05-20T00:05:08.877Z,15.83
2019-05-20T00:07:38.081Z,15.80
2019-05-20T00:10:07.148Z,17.90
2019-05-20T00:12:36.188Z,16.53
2019-05-20T00:15:05.273Z,16.07
2019-05-20T00:17:34.303Z,17.00
2019-05-20T00:20:03.326Z,16.53
2019-05-20T00:22:32.324Z,16.13
2019-05-20T00:25:01.370Z,18.27
2019-05-20T00:27:30.463Z,19.63
2019-05-20T00:29:59.498Z,18.83
2019-05-20T00:32:40.639Z,18.70
2019-05-20T00:34:59.343Z,18.63
2019-05-20T00:37:28.442Z,20.17
2019-05-20T00:39:57.494Z,19.13
2019-05-20T00:42:26.896Z,16.73
2019-05-20T00:44:56.061Z,17.70
2019-05-20T00:47:25.223Z,19.90
2019-05-20T00:49:54.314Z,19.07
2019-05-20T00:52:23.491Z,17.03
2019-05-20T00:54:52.605Z,18.63
2019-05-20T00:57:21.700Z,18.37
2019-05-20T00:59:50.776Z,16.93
2019-05-20T01:02:19.903Z,16.70
2019-05-20T01:04:48.975Z,17.97
2019-05-20T01:07:18.023Z,17.13
2019-05-20T01:09:47.093Z,16.93
2019-05-20T01:12:16.175Z,17.53
2019-05-20T01:14:45.296Z,18.80
2019-05-20T01:17:14.335Z,17.67
2019-05-20T01:19:43.360Z,16.73
2019-05-20T01:22:12.451Z,17.23
2019-05-20T01:24:41.510Z,17.77
2019-05-20T01:27:10.566Z,18.50
2019-05-20T01:29:39.618Z,18.00
2019-05-20T01:32:08.731Z,17.53
2019-05-20T01:34:37.768Z,18.67
2019-05-20T01:37:06.826Z,17.53
2019-05-20T01:39:35.935Z,18.33
2019-05-20T01:42:05.014Z,18.83
2019-05-20T01:44:34.075Z,19.70
2019-05-20T01:47:03.104Z,19.10
2019-05-20T01:49:32.103Z,19.50
2019-05-20T01:52:01.102Z,19.20
2019-05-20T01:54:30.169Z,19.80
2019-05-20T01:56:59.200Z,19.43
2019-05-20T01:59:28.224Z,19.10
2019-05-20T02:01:57.262Z,19.17
2019-05-20T02:04:26.330Z,20.07
2019-05-20T02:06:55.330Z,20.10
2019-05-20T02:09:24.343Z,19.53
2019-05-20T02:11:53.662Z,22.93
2019-05-20T02:14:24.853Z,20.30
2019-05-20T02:16:53.931Z,20.83
2019-05-20T02:19:23.002Z,20.73
2019-05-20T02:21:52.022Z,21.47
2019-05-20T02:24:21.138Z,19.83
2019-05-20T02:26:50.297Z,21.43
2019-05-20T02:29:19.316Z,21.50
2019-05-20T02:31:48.422Z,20.20
2019-05-20T02:34:17.505Z,20.70
2019-05-20T02:36:46.527Z,20.23
2019-05-20T02:39:15.680Z,20.13
2019-05-20T02:41:44.721Z,19.97
2019-05-20T02:44:13.752Z,21.87
2019-05-20T02:46:42.837Z,20.10
2019-05-20T02:49:11.887Z,20.23
2019-05-20T02:51:40.972Z,20.53
2019-05-20T02:54:10.113Z,20.40
2019-05-20T02:56:39.146Z,21.47
2019-05-20T02:59:08.246Z,22.23
2019-05-20T03:01:37.325Z,21.10
2019-05-20T03:04:12.292Z,21.47
2019-05-20T03:06:37.018Z,21.70
2019-05-20T03:09:06.217Z,20.53
2019-05-20T03:11:35.277Z,19.27
2019-05-20T03:14:04.594Z,20.20
2019-05-20T03:16:33.655Z,20.10
2019-05-20T03:19:02.709Z,19.67
2019-05-20T03:21:31.776Z,19.30
2019-05-20T03:24:00.815Z,19.23
2019-05-20T03:26:29.875Z,18.87
2019-05-20T03:28:58.976Z,18.87
2019-05-20T03:31:27.977Z,19.37
2019-05-20T03:33:57.045Z,17.80
2019-05-20T03:36:26.083Z,17.07
2019-05-20T03:38:55.124Z,17.67
2019-05-20T03:41:24.159Z,16.83
2019-05-20T03:43:53.212Z,16.80
2019-05-20T03:46:22.350Z,15.67
2019-05-20T03:48:51.432Z,15.93
2019-05-20T03:51:20.490Z,16.33
2019-05-20T03:53:49.580Z,16.43
2019-05-20T03:56:18.623Z,17.07
2019-05-20T03:58:47.713Z,17.20
2019-05-20T04:01:16.780Z,17.70
2019-05-20T04:03:45.840Z,19.23
2019-05-20T04:06:14.973Z,18.10
2019-05-20T04:08:44.054Z,18.67
2019-05-20T04:11:13.503Z,18.20
2019-05-20T04:13:42.558Z,19.53
2019-05-20T04:16:11.606Z,19.60
2019-05-20T04:18:40.614Z,22.63
2019-05-20T04:21:09.761Z,22.83
2019-05-20T04:23:38.923Z,22.93
2019-05-20T04:26:09.061Z,22.40
2019-05-20T04:28:38.123Z,21.43
2019-05-20T04:31:07.211Z,20.60
2019-05-20T04:33:36.279Z,20.40
2019-05-20T04:36:05.276Z,19.40
2019-05-20T04:38:34.285Z,20.07
2019-05-20T04:41:03.419Z,19.43
2019-05-20T04:43:32.447Z,19.50
2019-05-20T04:46:01.642Z,19.90
2019-05-20T04:48:30.782Z,19.07
2019-05-20T04:50:59.988Z,20.97
2019-05-20T04:53:29.074Z,21.53
2019-05-20T04:55:58.025Z,21.60
2019-05-20T04:58:27.091Z,20.03
2019-05-20T05:00:59.475Z,20.73
2019-05-20T05:03:28.506Z,18.40
2019-05-20T05:05:57.560Z,17.37
2019-05-20T05:08:26.666Z,17.23
2019-05-20T05:10:55.766Z,16.67
2019-05-20T05:13:24.773Z,16.97
2019-05-20T05:15:53.937Z,15.87
2019-05-20T05:18:23.022Z,15.40
2019-05-20T05:20:52.093Z,14.97
2019-05-20T05:23:21.427Z,14.47
2019-05-20T05:25:50.416Z,15.57
2019-05-20T05:28:19.482Z,14.63
2019-05-20T05:30:48.639Z,15.23
2019-05-20T05:33:17.691Z,14.17
2019-05-20T05:35:53.298Z,14.87
2019-05-20T05:38:17.503Z,14.73
2019-05-20T05:40:46.528Z,14.23
2019-05-20T05:43:16.882Z,16.13
2019-05-20T05:45:45.881Z,12.80
2019-05-20T05:48:14.961Z,13.57
2019-05-20T05:50:43.962Z,13.60
2019-05-20T05:53:13.011Z,14.73
2019-05-20T05:55:42.094Z,13.70
2019-05-20T05:58:11.112Z,13.73
2019-05-20T06:00:40.190Z,14.73
2019-05-20T06:03:09.250Z,13.23
2019-05-20T06:05:38.398Z,14.43
2019-05-20T06:08:07.414Z,13.70
2019-05-20T06:10:36.795Z,14.67
2019-05-20T06:13:05.940Z,13.60
2019-05-20T06:15:35.018Z,13.03
2019-05-20T06:18:04.152Z,13.63
2019-05-20T06:20:38.688Z,14.80
2019-05-20T06:23:08.015Z,15.10
2019-05-20T06:25:37.088Z,16.07
2019-05-20T06:28:06.210Z,15.40
2019-05-20T06:30:39.175Z,14.80
2019-05-20T06:33:09.908Z,15.30
2019-05-20T06:35:38.926Z,16.03
2019-05-20T06:38:12.143Z,14.77
2019-05-20T06:40:41.212Z,15.20
2019-05-20T06:43:10.272Z,13.73
2019-05-20T06:45:39.408Z,13.87
2019-05-20T06:48:08.555Z,13.70
2019-05-20T06:50:37.593Z,14.53
2019-05-20T06:53:06.700Z,14.40
2019-05-20T06:55:35.830Z,14.73
2019-05-20T06:58:04.885Z,13.67
2019-05-20T07:00:35.328Z,14.57
2019-05-20T07:03:04.622Z,14.37
2019-05-20T07:05:33.735Z,15.33
2019-05-20T07:08:02.872Z,13.20
2019-05-20T07:10:32.017Z,14.07
2019-05-20T07:13:01.122Z,12.60
2019-05-20T07:15:30.210Z,14.30
2019-05-20T07:17:59.280Z,12.47
2019-05-20T07:20:28.332Z,12.13
2019-05-20T07:22:57.474Z,13.27
2019-05-20T07:25:26.582Z,14.73
2019-05-20T07:27:55.552Z,14.20
2019-05-20T07:30:24.668Z,14.70
2019-05-20T07:32:53.731Z,13.87
2019-05-20T07:35:30.444Z,14.27
2019-05-20T07:37:53.703Z,13.27
2019-05-20T07:40:33.010Z,13.70
2019-05-20T07:43:02.884Z,14.17
2019-05-20T07:45:32.730Z,13.10
2019-05-20T07:48:01.874Z,13.13
2019-05-20T07:50:30.934Z,12.83
2019-05-20T07:53:00.700Z,13.03
2019-05-20T07:55:32.766Z,13.27
2019-05-20T07:58:05.135Z,12.47
2019-05-20T08:00:34.284Z,12.70
2019-05-20T08:03:03.352Z,11.97
2019-05-20T08:05:32.590Z,12.57
2019-05-20T08:08:01.716Z,12.43
2019-05-20T08:10:30.727Z,12.67
2019-05-20T08:12:59.764Z,14.47
2019-05-20T08:15:28.874Z,16.23
2019-05-20T08:18:00.189Z,17.93
2019-05-20T08:20:31.023Z,20.40
2019-05-20T08:23:00.040Z,24.63
2019-05-20T08:25:29.150Z,27.23
2019-05-20T08:28:00.352Z,26.43
2019-05-20T08:30:35.292Z,24.77
2019-05-20T08:33:04.453Z,24.17
2019-05-20T08:35:33.518Z,24.57
2019-05-20T08:38:02.610Z,23.07
2019-05-20T08:40:31.633Z,23.43
2019-05-20T08:43:00.686Z,22.00
2019-05-20T08:45:29.675Z,20.13
2019-05-20T08:47:58.847Z,18.57
2019-05-20T08:50:28.063Z,16.23
2019-05-20T08:52:57.214Z,14.33
2019-05-20T08:55:26.249Z,15.50
2019-05-20T08:57:55.525Z,13.47
2019-05-20T09:00:26.813Z,13.07
2019-05-20T09:02:55.851Z,13.03
2019-05-20T09:05:28.198Z,13.20
2019-05-20T09:08:02.771Z,12.73
2019-05-20T09:10:28.011Z,12.63
2019-05-20T09:12:57.147Z,13.37
2019-05-20T09:15:26.212Z,14.00
2019-05-20T09:17:55.303Z,15.63
2019-05-20T09:20:24.551Z,17.80
2019-05-20T09:22:53.732Z,19.90
2019-05-20T09:25:30.365Z,19.70
2019-05-20T09:27:59.820Z,28.50
2019-05-20T09:30:30.478Z,20.30
2019-05-20T09:32:59.579Z,15.50
2019-05-20T09:35:28.613Z,13.93
2019-05-20T09:37:57.759Z,12.57
2019-05-20T09:40:38.682Z,11.83
2019-05-20T09:43:07.825Z,10.50
2019-05-20T09:46:06.214Z,11.17
2019-05-20T09:48:26.791Z,10.67
2019-05-20T09:50:55.875Z,11.23
2019-05-20T09:53:24.995Z,12.50
2019-05-20T09:55:55.578Z,10.07
2019-05-20T09:58:24.650Z,11.70
2019-05-20T10:00:53.839Z,15.97
2019-05-20T10:03:22.968Z,19.13
2019-05-20T10:05:52.136Z,18.70
2019-05-20T10:08:36.346Z,15.03
2019-05-20T10:10:51.892Z,16.03
2019-05-20T10:13:20.941Z,16.70
2019-05-20T10:15:50.036Z,17.53
2019-05-20T10:18:35.578Z,20.07
2019-05-20T10:20:49.898Z,23.87
2019-05-20T10:23:18.955Z,25.30
2019-05-20T10:25:48.047Z,23.90
2019-05-20T10:28:17.078Z,20.87
2019-05-20T10:30:46.191Z,18.57
2019-05-20T10:33:15.171Z,22.10
2019-05-20T10:35:44.188Z,21.20
2019-05-20T10:38:13.299Z,21.07
2019-05-20T10:40:42.838Z,23.33
2019-05-20T10:43:11.961Z,22.90
2019-05-20T10:45:41.118Z,21.73
2019-05-20T10:48:10.223Z,21.93
2019-05-20T10:50:39.274Z,21.97
2019-05-20T10:53:09.963Z,21.23
2019-05-20T10:55:39.075Z,21.53
2019-05-20T10:58:09.540Z,21.63
2019-05-20T11:00:38.581Z,21.30
2019-05-20T11:03:07.647Z,21.73
2019-05-20T11:05:36.680Z,21.47
2019-05-20T11:08:05.673Z,21.40
2019-05-20T11:10:34.751Z,21.97
2019-05-20T11:13:03.906Z,21.07
2019-05-20T11:15:33.049Z,21.40
2019-05-20T11:18:02.125Z,22.30
2019-05-20T11:20:31.151Z,19.47
2019-05-20T11:23:01.198Z,20.13
2019-05-20T11:25:30.567Z,18.10
2019-05-20T11:27:59.629Z,17.13
2019-05-20T11:30:28.764Z,17.77
2019-05-20T11:32:57.785Z,16.77
2019-05-20T11:35:26.848Z,17.70
2019-05-20T11:37:56.079Z,18.80
2019-05-20T11:40:25.124Z,21.77
2019-05-20T11:42:54.269Z,23.27
2019-05-20T11:45:23.314Z,21.70
2019-05-20T11:47:52.507Z,19.33
2019-05-20T11:50:21.517Z,18.70
2019-05-20T11:52:50.589Z,19.80
2019-05-20T11:55:19.619Z,21.20
2019-05-20T11:57:48.713Z,20.43
2019-05-20T12:00:17.839Z,19.33
2019-05-20T12:02:46.929Z,18.77
2019-05-20T12:05:15.993Z,17.90
2019-05-20T12:07:45.061Z,17.23
2019-05-20T12:10:14.222Z,17.90
2019-05-20T12:12:46.097Z,15.43
2019-05-20T12:15:14.007Z,16.23
2019-05-20T12:17:43.049Z,15.13
2019-05-20T12:20:12.933Z,14.27
2019-05-20T12:22:43.274Z,13.47
2019-05-20T12:25:12.373Z,14.20
2019-05-20T12:27:41.377Z,11.77
2019-05-20T12:30:10.580Z,9.93
2019-05-20T12:32:39.592Z,9.30
2019-05-20T12:35:09.234Z,8.67
2019-05-20T12:37:38.305Z,8.20
2019-05-20T12:40:08.609Z,8.00
2019-05-20T12:42:37.904Z,7.93
2019-05-20T12:45:07.092Z,7.43
2019-05-20T12:47:36.197Z,7.90
2019-05-20T12:50:05.402Z,7.70
2019-05-20T12:52:34.546Z,7.63
2019-05-20T12:55:08.497Z,7.87
2019-05-20T12:57:34.363Z,7.70
2019-05-20T13:00:03.634Z,7.73
2019-05-20T13:02:32.755Z,7.80
2019-05-20T13:05:02.134Z,7.37
2019-05-20T13:07:31.495Z,6.60
2019-05-20T13:10:03.102Z,6.87
2019-05-20T13:12:31.235Z,7.60
2019-05-20T13:15:00.327Z,6.80
2019-05-20T13:17:29.387Z,7.43
2019-05-20T13:19:58.590Z,7.03
2019-05-20T13:22:27.650Z,7.33
2019-05-20T13:24:56.691Z,7.03
2019-05-20T13:27:25.774Z,7.70
2019-05-20T13:29:54.839Z,7.00
2019-05-20T13:32:23.975Z,6.57
2019-05-20T13:34:53.118Z,7.23
2019-05-20T13:37:22.263Z,6.60
2019-05-20T13:39:51.327Z,7.70
2019-05-20T13:42:20.415Z,7.37
2019-05-20T13:44:49.472Z,8.13
2019-05-20T13:47:18.480Z,9.53
2019-05-20T13:49:47.523Z,9.80
2019-05-20T13:52:16.606Z,9.30
2019-05-20T13:54:45.695Z,8.90
2019-05-20T13:57:14.817Z,8.90
2019-05-20T13:59:44.016Z,9.60
2019-05-20T14:02:13.143Z,9.97
2019-05-20T14:04:42.361Z,10.53
2019-05-20T14:07:11.433Z,11.00
2019-05-20T14:09:40.666Z,10.67
2019-05-20T14:12:09.891Z,10.77
2019-05-20T14:14:38.956Z,11.90
2019-05-20T14:17:08.084Z,12.50
2019-05-20T14:19:37.122Z,12.53
2019-05-20T14:22:06.233Z,13.13
2019-05-20T14:24:35.335Z,13.67
2019-05-20T14:27:04.534Z,13.87
2019-05-20T14:29:33.638Z,13.63
2019-05-20T14:32:03.196Z,13.17
2019-05-20T14:34:32.459Z,13.07
2019-05-20T14:37:01.531Z,12.17
2019-05-20T14:39:30.562Z,13.33
2019-05-20T14:41:59.674Z,12.70
2019-05-20T14:44:28.747Z,12.33
2019-05-20T14:46:57.811Z,12.57
2019-05-20T14:49:26.891Z,13.60
2019-05-20T14:51:56.046Z,12.77
2019-05-20T14:54:25.170Z,12.80
2019-05-20T14:56:54.329Z,12.77
2019-05-20T14:59:24.436Z,12.40
2019-05-20T15:01:53.762Z,12.23
2019-05-20T15:04:22.855Z,12.50
2019-05-20T15:06:51.872Z,12.50
2019-05-20T15:09:20.915Z,10.23
2019-05-20T15:11:50.067Z,10.77
2019-05-20T15:14:19.095Z,10.13
2019-05-20T15:16:48.081Z,11.47
2019-05-20T15:19:17.184Z,12.53
2019-05-20T15:21:46.271Z,12.37
2019-05-20T15:24:15.313Z,11.80
2019-05-20T15:26:44.438Z,11.07
2019-05-20T15:29:26.895Z,11.60
2019-05-20T15:31:44.303Z,11.83
2019-05-20T15:34:13.430Z,11.00
2019-05-20T15:36:42.521Z,10.47
2019-05-20T15:39:11.557Z,11.20
2019-05-20T15:41:40.589Z,11.37
2019-05-20T15:44:09.653Z,12.33
2019-05-20T15:46:38.805Z,12.23
2019-05-20T15:49:07.810Z,12.47
2019-05-20T15:51:36.840Z,11.83
2019-05-20T15:54:05.919Z,11.20
2019-05-20T15:56:34.951Z,12.47
2019-05-20T15:59:04.683Z,12.87
2019-05-20T16:01:33.720Z,13.67
2019-05-20T16:04:02.860Z,15.00
2019-05-20T16:06:31.884Z,14.27
2019-05-20T16:09:00.904Z,14.83
2019-05-20T16:11:29.975Z,13.57
2019-05-20T16:13:59.015Z,13.20
2019-05-20T16:16:30.563Z,11.77
2019-05-20T16:18:59.878Z,10.67
2019-05-20T16:21:29.097Z,11.60
2019-05-20T16:23:58.161Z,11.30
2019-05-20T16:26:29.980Z,10.90
2019-05-20T16:28:58.039Z,11.20
2019-05-20T16:31:27.054Z,10.20
2019-05-20T16:33:59.367Z,11.67
2019-05-20T16:36:26.853Z,12.03
2019-05-20T16:38:55.923Z,15.20
2019-05-20T16:41:25.041Z,16.00
2019-05-20T16:43:54.095Z,16.93
2019-05-20T16:46:23.199Z,17.30
2019-05-20T16:48:52.286Z,17.33
2019-05-20T16:51:22.390Z,15.63
2019-05-20T16:53:51.676Z,13.83
2019-05-20T16:56:20.755Z,13.00
2019-05-20T16:58:50.890Z,14.30
2019-05-20T17:01:19.946Z,15.63
2019-05-20T17:03:48.959Z,15.67
2019-05-20T17:06:17.994Z,14.77
2019-05-20T17:08:47.066Z,14.87
2019-05-20T17:11:16.145Z,13.83
2019-05-20T17:13:45.219Z,14.50
2019-05-20T17:16:14.207Z,14.23
2019-05-20T17:18:43.211Z,13.27
2019-05-20T17:21:12.374Z,14.70
2019-05-20T17:23:41.518Z,14.93
2019-05-20T17:26:10.587Z,13.80
2019-05-20T17:28:39.658Z,15.73
2019-05-20T17:31:08.733Z,14.70
2019-05-20T17:33:37.864Z,15.03
2019-05-20T17:36:06.975Z,18.17
2019-05-20T17:38:35.994Z,18.63
2019-05-20T17:41:05.067Z,18.40
2019-05-20T17:43:34.117Z,17.50
2019-05-20T17:46:03.134Z,17.93
2019-05-20T17:48:32.313Z,16.93
2019-05-20T17:51:01.419Z,18.47
2019-05-20T17:53:30.606Z,17.80
2019-05-20T17:55:59.703Z,17.77
2019-05-20T17:58:28.752Z,18.37
2019-05-20T18:01:12.206Z,20.87
2019-05-20T18:03:28.610Z,20.33
2019-05-20T18:05:57.611Z,18.87
2019-05-20T18:08:28.319Z,18.60
2019-05-20T18:10:57.410Z,16.33
2019-05-20T18:13:26.615Z,13.67
2019-05-20T18:15:55.791Z,12.43
2019-05-20T18:18:24.893Z,12.77
2019-05-20T18:20:56.476Z,12.27
2019-05-20T18:23:24.695Z,12.87
2019-05-20T18:25:53.734Z,13.77
2019-05-20T18:28:22.911Z,12.10
2019-05-20T18:30:52.006Z,9.93
2019-05-20T18:33:21.098Z,10.17
2019-05-20T18:35:50.086Z,10.00
2019-05-20T18:38:19.134Z,10.77
2019-05-20T18:40:48.216Z,10.77
2019-05-20T18:43:17.247Z,9.50
2019-05-20T18:45:46.262Z,10.60
2019-05-20T18:48:15.371Z,10.00
2019-05-20T18:50:44.474Z,10.57
2019-05-20T18:53:13.586Z,9.93
2019-05-20T18:55:42.786Z,9.90
2019-05-20T18:58:11.849Z,10.87
2019-05-20T19:00:41.189Z,11.77
2019-05-20T19:03:10.293Z,11.73
2019-05-20T19:05:39.302Z,12.40
2019-05-20T19:08:08.698Z,14.20
2019-05-20T19:10:37.772Z,13.83
2019-05-20T19:13:06.835Z,13.83
2019-05-20T19:15:35.912Z,14.17
2019-05-20T19:18:04.961Z,12.23
2019-05-20T19:20:33.979Z,13.70
2019-05-20T19:23:03.007Z,13.37
2019-05-20T19:25:37.813Z,12.90
2019-05-20T19:28:02.815Z,11.57
2019-05-20T19:30:31.842Z,13.03
2019-05-20T19:33:00.861Z,12.03
2019-05-20T19:35:29.979Z,13.70
2019-05-20T19:37:59.122Z,15.10
2019-05-20T19:40:28.165Z,15.20
2019-05-20T19:42:57.199Z,16.60
2019-05-20T19:45:26.353Z,16.27
2019-05-20T19:47:55.408Z,13.57
2019-05-20T19:50:24.443Z,13.53
2019-05-20T19:52:53.479Z,13.80
2019-05-20T19:55:22.519Z,13.10
2019-05-20T19:57:51.586Z,17.10
2019-05-20T20:00:20.704Z,17.90
2019-05-20T20:02:49.777Z,21.43
2019-05-20T20:05:18.849Z,21.37
2019-05-20T20:07:47.971Z,20.77
2019-05-20T20:10:16.985Z,22.20
2019-05-20T20:12:46.007Z,21.93
2019-05-20T20:15:19.186Z,19.07
2019-05-20T20:17:48.302Z,17.53
2019-05-20T20:20:18.971Z,19.10
2019-05-20T20:22:47.955Z,18.87
2019-05-20T20:25:17.292Z,17.17
2019-05-20T20:27:46.668Z,18.03
2019-05-20T20:30:16.247Z,16.63
2019-05-20T20:32:45.509Z,17.30
2019-05-20T20:35:15.279Z,17.87
2019-05-20T20:37:44.301Z,17.50
2019-05-20T20:40:13.355Z,18.13
2019-05-20T20:42:42.741Z,16.87
2019-05-20T20:45:11.777Z,21.30
2019-05-20T20:47:42.292Z,17.77
2019-05-20T20:50:11.620Z,19.87
2019-05-20T20:52:40.693Z,20.10
2019-05-20T20:55:09.689Z,20.37
2019-05-20T20:57:57.910Z,21.50
2019-05-20T21:00:26.941Z,21.07
2019-05-20T21:02:55.989Z,20.40
2019-05-20T21:05:25.057Z,20.37
2019-05-20T21:07:55.230Z,20.30
2019-05-20T21:10:24.318Z,19.93
2019-05-20T21:12:53.359Z,20.33
2019-05-20T21:15:22.455Z,19.77
2019-05-20T21:17:55.020Z,20.07
2019-05-20T21:20:32.580Z,19.03
2019-05-20T21:23:01.678Z,19.13
2019-05-20T21:25:32.390Z,18.67
2019-05-20T21:28:01.439Z,19.27
2019-05-20T21:30:30.461Z,20.47
2019-05-20T21:33:08.767Z,19.83
2019-05-20T21:35:30.224Z,19.90
2019-05-20T21:37:59.301Z,20.47
2019-05-20T21:40:29.189Z,20.37
2019-05-20T21:43:05.393Z,19.03
2019-05-20T21:45:34.463Z,18.77
2019-05-20T21:48:03.567Z,18.23
2019-05-20T21:50:32.607Z,18.50
2019-05-20T21:53:01.582Z,18.13
2019-05-20T21:55:30.681Z,18.73
2019-05-20T21:57:59.866Z,19.30
2019-05-20T22:00:40.254Z,20.27
2019-05-20T22:03:23.549Z,19.33
2019-05-20T22:05:41.148Z,20.50
2019-05-20T22:08:10.111Z,20.33
2019-05-20T22:10:39.171Z,21.30
2019-05-20T22:13:08.204Z,22.27
2019-05-20T22:15:37.211Z,22.70
2019-05-20T22:18:06.307Z,22.23
2019-05-20T22:20:35.350Z,24.23
2019-05-20T22:23:29.891Z,21.33
2019-05-20T22:25:59.039Z,22.53
2019-05-20T22:28:28.069Z,19.87
2019-05-20T22:30:57.166Z,19.60
2019-05-20T22:33:40.273Z,19.43
2019-05-20T22:35:56.847Z,17.93
2019-05-20T22:38:25.830Z,17.50
2019-05-20T22:40:54.887Z,17.87
2019-05-20T22:43:23.955Z,17.07
2019-05-20T22:45:53.325Z,16.77
2019-05-20T22:48:22.618Z,16.20
2019-05-20T22:50:51.810Z,16.33
2019-05-20T22:53:20.862Z,16.90
2019-05-20T22:55:49.863Z,17.50
2019-05-20T22:58:18.880Z,17.23
2019-05-20T23:00:47.894Z,16.83
2019-05-20T23:03:17.002Z,16.67
2019-05-20T23:05:46.079Z,17.43
2019-05-20T23:08:15.066Z,16.80
2019-05-20T23:10:44.091Z,15.83
2019-05-20T23:13:13.221Z,18.17
2019-05-20T23:15:42.371Z,17.77
2019-05-20T23:18:11.614Z,16.70
2019-05-20T23:20:40.654Z,16.40
2019-05-20T23:23:09.648Z,16.80
2019-05-20T23:25:38.665Z,18.33
2019-05-20T23:28:07.734Z,19.00
2019-05-20T23:30:36.806Z,19.50
2019-05-20T23:33:05.897Z,19.60
2019-05-20T23:35:34.890Z,19.57
2019-05-20T23:38:03.928Z,18.57
2019-05-20T23:40:33.260Z,20.07
2019-05-20T23:43:02.333Z,20.00
2019-05-20T23:45:31.445Z,21.33
2019-05-20T23:48:00.485Z,18.57
2019-05-20T23:50:29.542Z,20.53
2019-05-20T23:52:58.640Z,20.40
2019-05-20T23:55:27.693Z,20.23
2019-05-20T23:57:56.714Z,19.17
